Time;durP1;ratioP1;P1;durP2;ratioP2;P2;SDS_P1;SDS_P2;PMS_P1;PMS_P2;Temp;Humidity;BMP_temperature;BMP_pressure;BME280_temperature;BME280_humidity;BME280_pressure;Samples;Min_cycle;Max_cycle;Signal;HPM_P1;HPM_P2
2022/06/06 00:02:27;;;;;;;7.63;4.70;;;;;;;;;;5074959;28;20823;-70
2022/06/06 00:04:54;;;;;;;9.43;5.43;;;;;;;;;;5075822;28;20278;-70
2022/06/06 00:07:20;;;;;;;4.68;4.38;;;;;;;;;;5075205;28;20643;-71
2022/06/06 00:09:47;;;;;;;8.02;5.80;;;;;;;;;;5075453;28;20251;-70
2022/06/06 00:12:14;;;;;;;6.22;5.63;;;;;;;;;;5075190;28;20232;-70
2022/06/06 00:14:41;;;;;;;5.43;5.03;;;;;;;;;;5074477;28;20288;-71
2022/06/06 00:17:08;;;;;;;6.35;5.65;;;;;;;;;;5072871;28;20198;-71
2022/06/06 00:19:36;;;;;;;7.38;6.65;;;;;;;;;;5073164;28;20197;-71
2022/06/06 00:22:02;;;;;;;5.72;5.32;;;;;;;;;;5073252;28;20242;-71
2022/06/06 00:24:29;;;;;;;7.43;6.72;;;;;;;;;;5073679;28;20205;-73
2022/06/06 00:26:56;;;;;;;9.68;5.47;;;;;;;;;;5073527;28;20197;-70
2022/06/06 00:29:23;;;;;;;7.50;6.38;;;;;;;;;;5072976;28;20631;-71
2022/06/06 00:34:52;;;;;;;6.63;5.82;;;;;;;;;;5075337;28;20205;-70
2022/06/06 00:37:22;;;;;;;6.70;6.10;;;;;;;;;;5075014;28;20296;-71
2022/06/06 00:39:49;;;;;;;5.50;5.10;;;;;;;;;;5074775;28;20685;-70
2022/06/06 00:42:18;;;;;;;6.90;5.93;;;;;;;;;;5074593;28;20630;-70
2022/06/06 00:44:45;;;;;;;6.40;5.03;;;;;;;;;;5074735;28;20197;-72
2022/06/06 00:47:16;;;;;;;6.20;5.80;;;;;;;;;;5074934;28;20206;-70
2022/06/06 00:49:45;;;;;;;6.40;5.80;;;;;;;;;;5074796;28;20206;-70
2022/06/06 00:52:13;;;;;;;6.75;5.47;;;;;;;;;;5074162;28;20257;-72
2022/06/06 00:54:41;;;;;;;6.97;5.90;;;;;;;;;;5075136;28;21702;-70
2022/06/06 00:57:13;;;;;;;8.57;5.72;;;;;;;;;;5074215;28;20208;-71
2022/06/06 00:59:41;;;;;;;5.50;5.07;;;;;;;;;;5074609;28;20296;-69
2022/06/06 01:02:10;;;;;;;6.22;5.50;;;;;;;;;;5074916;28;20288;-70
2022/06/06 01:04:36;;;;;;;6.03;5.15;;;;;;;;;;5076976;28;20656;-70
2022/06/06 01:07:05;;;;;;;9.43;6.03;;;;;;;;;;5077834;28;20197;-70
2022/06/06 01:09:31;;;;;;;7.15;5.85;;;;;;;;;;5078637;28;20276;-70
2022/06/06 01:12:02;;;;;;;6.63;6.05;;;;;;;;;;5078410;28;20334;-70
2022/06/06 01:14:30;;;;;;;7.03;5.93;;;;;;;;;;5078256;28;20197;-70
2022/06/06 01:17:01;;;;;;;6.85;5.50;;;;;;;;;;5077969;28;20732;-70
2022/06/06 01:19:44;;;;;;;8.18;6.15;;;;;;;;;;5077763;28;20329;-70
2022/06/06 01:22:21;;;;;;;6.45;5.88;;;;;;;;;;5077828;28;20212;-69
2022/06/06 01:25:03;;;;;;;6.78;5.25;;;;;;;;;;5078288;28;20225;-70
2022/06/06 01:27:38;;;;;;;9.40;5.80;;;;;;;;;;5075233;28;20201;-72
2022/06/06 01:30:07;;;;;;;6.07;5.47;;;;;;;;;;5078153;28;20319;-71
2022/06/06 01:32:37;;;;;;;7.57;5.50;;;;;;;;;;5077571;28;20260;-71
2022/06/06 01:35:04;;;;;;;7.43;6.07;;;;;;;;;;5078374;28;20201;-70
2022/06/06 01:37:32;;;;;;;5.95;5.55;;;;;;;;;;5076177;28;20201;-70
2022/06/06 01:40:00;;;;;;;7.25;5.65;;;;;;;;;;5077522;28;20205;-72
2022/06/06 01:42:32;;;;;;;5.63;5.13;;;;;;;23.19;nan;94963.28;5077262;28;21640;-71
2022/06/06 01:45:06;;;;;;;6.05;5.00;;;;;;;22.94;nan;94956.75;5077832;28;20210;-72
2022/06/06 01:47:39;;;;;;;11.77;5.53;;;;;;;22.56;nan;94915.84;5077202;28;20780;-70
2022/06/06 01:50:07;;;;;;;11.18;6.00;;;;;;;22.49;nan;94914.75;5077610;28;20208;-70
2022/06/06 01:52:51;;;;;;;13.35;7.15;;;;;;;22.06;nan;94910.47;5076664;28;20228;-70
2022/06/06 01:55:18;;;;;;;13.38;6.82;;;;;;;21.42;nan;94931.09;5078117;28;20205;-71
2022/06/06 01:57:46;;;;;;;8.85;6.45;;;;;;;21.31;nan;94933.69;5076611;28;20224;-71
2022/06/06 02:00:15;;;;;;;11.75;6.72;;;;;;;20.84;nan;94938.13;5076135;28;20205;-70
2022/06/06 02:02:43;;;;;;;10.07;6.93;;;;;;;20.91;nan;94928.16;5075469;28;20202;-72
2022/06/06 02:05:11;;;;;;;11.80;6.20;;;;;;;21.02;nan;94921.25;5075715;28;20206;-70
2022/06/06 02:07:38;;;;;;;7.88;5.30;;;;;;;20.91;nan;94910.09;5076005;28;20203;-70
2022/06/06 02:10:09;;;;;;;8.32;6.05;;;;;;;20.56;nan;94917.91;5076227;28;20208;-70
2022/06/06 02:12:37;;;;;;;8.90;6.60;;;;;;;20.61;nan;94936.47;5076302;28;20232;-70
2022/06/06 02:15:04;;;;;;;10.73;6.00;;;;;;;20.91;nan;94954.81;5076812;28;20211;-73
2022/06/06 02:17:31;;;;;;;9.55;5.55;;;;;;;20.87;nan;94953.41;5076427;28;20202;-70
2022/06/06 02:20:04;;;;;;;10.60;5.50;;;;;;;20.95;nan;94976.91;5076916;28;20205;-70
2022/06/06 02:22:31;;;;;;;9.25;4.93;;;;;;;20.91;nan;94990.16;5076827;28;20760;-70
2022/06/06 02:24:58;;;;;;;17.80;6.15;;;;;;;20.95;nan;95007.91;5076980;28;20249;-70
2022/06/06 02:27:25;;;;;;;11.32;7.03;;;;;;;20.72;nan;95021.72;5077044;28;20230;-71
2022/06/06 02:29:52;;;;;;;23.80;9.35;;;;;;;21.05;nan;95045.00;5077258;28;20213;-70
2022/06/06 02:32:19;;;;;;;14.85;6.25;;;;;;;21.02;nan;95029.75;5076236;28;20221;-70
2022/06/06 02:34:46;;;;;;;12.48;6.28;;;;;;;20.81;nan;95021.00;5076551;28;20881;-71
2022/06/06 02:37:14;;;;;;;21.92;9.57;;;;;;;20.92;nan;94997.78;5076315;28;20201;-70
2022/06/06 02:39:41;;;;;;;11.90;6.43;;;;;;;21.01;nan;94981.59;5076856;28;20611;-73
2022/06/06 02:42:08;;;;;;;12.13;6.05;;;;;;;21.02;nan;94952.25;5077130;28;20250;-72
2022/06/06 02:44:35;;;;;;;8.95;5.97;;;;;;;20.85;nan;94955.28;5076720;28;20198;-70
2022/06/06 02:47:02;;;;;;;11.93;7.28;;;;;;;20.79;nan;94929.09;5075848;28;20289;-70
2022/06/06 02:49:30;;;;;;;10.77;6.45;;;;;;;20.71;nan;94896.09;5077382;28;20213;-73
2022/06/06 02:51:57;;;;;;;9.52;6.68;;;;;;;20.82;nan;94885.75;5076287;28;20252;-72
2022/06/06 02:54:26;;;;;;;8.80;6.85;;;;;;;20.75;nan;94874.28;5076491;28;20629;-73
2022/06/06 02:56:54;;;;;;;9.13;4.97;;;;;;;20.50;nan;94867.56;5076479;28;20636;-70
2022/06/06 02:59:24;;;;;;;8.35;6.47;;;;;;;20.55;nan;94864.63;5076374;28;20201;-70
2022/06/06 03:01:51;;;;;;;10.70;6.38;;;;;;;20.69;nan;94851.50;5074726;28;20198;-71
2022/06/06 03:04:18;;;;;;;16.58;7.07;;;;;;;20.71;nan;94875.44;5075720;28;20289;-70
2022/06/06 03:06:55;;;;;;;10.93;6.82;;;;;;;20.92;nan;94891.06;5075472;28;20202;-69
2022/06/06 03:09:39;;;;;;;9.95;6.55;;;;;;;20.84;nan;94901.97;5076020;28;20327;-71
2022/06/06 03:12:27;;;;;;;8.10;5.95;;;;;;;20.84;nan;94917.47;5075075;28;22384;-70
2022/06/06 03:15:23;;;;;;;14.98;6.90;;;;;;;20.66;nan;94918.88;5074773;28;20609;-70
2022/06/06 03:20:59;;;;;;;11.27;6.40;;;;;;;20.38;nan;94918.34;5073411;28;20254;-72
2022/06/06 03:23:42;;;;;;;11.23;6.25;;;;;;;20.61;nan;94923.56;5074238;28;20206;-72
2022/06/06 03:26:15;;;;;;;10.57;6.63;;;;;;;20.56;nan;94939.38;5073620;28;20255;-73
2022/06/06 03:28:59;;;;;;;12.40;7.32;;;;;;;20.17;nan;94961.19;5073055;28;20316;-70
2022/06/06 03:31:35;;;;;;;9.13;8.05;;;;;;;20.30;nan;94963.69;5073491;28;20221;-70
2022/06/06 03:34:10;;;;;;;13.70;9.63;;;;;;;20.48;nan;94969.31;5074938;28;20208;-73
2022/06/06 03:36:47;;;;;;;12.10;10.50;;;;;;;20.41;nan;94962.94;5074523;28;20400;-70
2022/06/06 03:39:25;;;;;;;11.27;8.50;;;;;;;20.35;nan;94957.25;5074682;28;20354;-70
2022/06/06 03:42:04;;;;;;;12.02;7.22;;;;;;;20.25;nan;94940.81;5075101;28;20204;-70
2022/06/06 03:44:49;;;;;;;13.45;8.27;;;;;;;20.60;nan;94950.31;5074560;28;20200;-72
2022/06/06 03:47:26;;;;;;;7.90;5.90;;;;;;;20.63;nan;94955.25;5074406;28;20247;-71
2022/06/06 03:50:03;;;;;;;12.27;6.55;;;;;;;20.51;nan;94969.06;5074898;28;20555;-70
2022/06/06 03:52:42;;;;;;;6.95;5.93;;;;;;;20.41;nan;94962.94;5073361;28;20229;-71
2022/06/06 03:55:27;;;;;;;9.25;6.47;;;;;;;20.52;nan;94973.31;5072738;28;20201;-69
2022/06/06 03:57:56;;;;;;;7.40;6.70;;;;;;;20.41;nan;94965.53;5072465;28;20221;-70
2022/06/06 04:00:24;;;;;;;12.02;7.40;;;;;;;20.50;nan;94959.69;5072856;28;20229;-71
2022/06/06 04:02:54;;;;;;;10.48;7.15;;;;;;;20.32;nan;94954.06;5072561;28;20201;-71
2022/06/06 04:05:22;;;;;;;7.18;6.45;;;;;;;20.55;nan;94957.56;5072655;28;20212;-70
2022/06/06 04:07:49;;;;;;;8.52;6.80;;;;;;;20.81;nan;94945.28;5072910;28;20197;-71
2022/06/06 04:10:17;;;;;;;10.15;6.13;;;;;;;20.84;nan;94951.03;5074232;28;20189;-70
2022/06/06 04:13:02;;;;;;;8.98;7.20;;;;;;;20.96;nan;94947.53;5073945;28;20240;-70
2022/06/06 04:15:47;;;;;;;10.77;7.93;;;;;;;20.97;nan;94948.38;5074167;28;20205;-72
2022/06/06 04:18:26;;;;;;;9.93;7.68;;;;;;;20.96;nan;94952.72;5074340;28;20337;-69
2022/06/06 04:21:02;;;;;;;13.32;7.43;;;;;;;20.64;nan;94949.97;5074010;28;20197;-71
2022/06/06 04:23:43;;;;;;;11.45;7.30;;;;;;;20.52;nan;94957.81;5073804;28;20201;-71
2022/06/06 04:26:19;;;;;;;11.63;7.80;;;;;;;20.28;nan;94953.50;5034929;28;1120557;-71
2022/06/06 04:28:57;;;;;;;14.95;8.02;;;;;;;20.18;nan;94941.38;5075347;28;20208;-70
2022/06/06 04:31:33;;;;;;;19.25;11.52;;;;;;;20.23;nan;94947.84;5074504;28;20270;-70
2022/06/06 04:34:10;;;;;;;9.93;8.93;;;;;;;20.35;nan;94944.34;5074778;28;21091;-73
2022/06/06 04:36:42;;;;;;;10.80;8.45;;;;;;;20.50;nan;94951.94;5074718;28;20209;-70
2022/06/06 04:39:14;;;;;;;14.23;8.38;;;;;;;20.83;nan;94946.00;5076777;28;20225;-70
2022/06/06 04:41:46;;;;;;;14.13;8.65;;;;;;;21.11;nan;94949.88;5078928;28;20206;-71
2022/06/06 04:44:21;;;;;;;8.82;7.93;;;;;;;21.36;nan;94949.66;5078541;28;20569;-70
2022/06/06 04:46:54;;;;;;;13.20;7.90;;;;;;;21.64;nan;94954.31;5077844;28;20197;-71
2022/06/06 04:49:22;;;;;;;26.25;13.38;;;;;;;21.65;nan;94953.38;5078884;28;20201;-70
2022/06/06 04:51:50;;;;;;;9.82;8.73;;;;;;;22.08;nan;94957.75;5077741;28;20236;-72
2022/06/06 04:54:21;;;;;;;13.52;10.65;;;;;;;22.35;nan;94954.69;5078425;28;20345;-70
2022/06/06 04:56:52;;;;;;;10.15;8.98;;;;;;;22.51;nan;94951.69;5078149;28;20601;-71
2022/06/06 04:59:24;;;;;;;11.98;8.82;;;;;;;22.77;nan;94955.50;5078577;28;20662;-72
2022/06/06 05:01:51;;;;;;;14.95;8.95;;;;;;;22.59;nan;94941.50;5077254;28;20581;-70
2022/06/06 05:04:18;;;;;;;17.52;12.40;;;;;;;22.31;nan;94956.72;5077355;28;20210;-69
2022/06/06 05:07:23;;;;;;;21.50;12.60;;;;;;;22.27;nan;94963.09;5078192;28;20220;-71
2022/06/06 05:10:08;;;;;;;16.17;9.30;;;;;;;21.77;nan;94974.91;5078291;28;20205;-70
2022/06/06 05:12:51;;;;;;;13.10;9.40;;;;;;;21.58;nan;94967.72;5077373;28;20232;-71
2022/06/06 05:15:30;;;;;;;12.40;9.60;;;;;;;21.45;nan;94969.66;5078157;28;20213;-70
2022/06/06 05:18:18;;;;;;;12.10;9.63;;;;;;;21.69;nan;94982.44;5077781;28;20208;-70
2022/06/06 05:20:57;;;;;;;12.70;8.35;;;;;;;21.84;nan;94980.38;5078012;28;20220;-72
2022/06/06 05:23:37;;;;;;;13.05;9.40;;;;;;;21.96;nan;94979.41;5077185;28;20210;-71
2022/06/06 05:26:29;;;;;;;16.52;9.10;;;;;;;22.25;nan;94980.53;5077840;28;20225;-70
2022/06/06 05:29:18;;;;;;;10.80;8.88;;;;;;;23.03;nan;94977.50;5076947;28;21505;-70
2022/06/06 05:32:11;;;;;;;10.90;9.10;;;;;;;23.80;nan;94971.00;5076144;28;20673;-71
2022/06/06 05:34:42;;;;;;;10.77;9.20;;;;;;;24.04;nan;94971.44;5077751;28;20677;-70
2022/06/06 05:37:25;;;;;;;18.63;8.98;;;;;;;24.38;nan;94971.91;5077503;28;20212;-70
2022/06/06 05:40:12;;;;;;;16.10;8.65;;;;;;;24.99;nan;94971.59;5077562;28;20208;-71
2022/06/06 05:42:53;;;;;;;10.27;7.65;;;;;;;24.67;nan;94977.06;5077678;28;20208;-70
2022/06/06 05:45:31;;;;;;;10.43;7.78;;;;;;;24.63;nan;94975.72;5076277;28;20197;-70
2022/06/06 05:48:14;;;;;;;17.30;8.55;;;;;;;24.63;nan;94975.72;5075706;28;20216;-71
2022/06/06 05:51:07;;;;;;;10.82;8.82;;;;;;;24.85;nan;94975.41;5075180;28;21121;-71
2022/06/06 05:53:55;;;;;;;9.82;8.82;;;;;;;24.84;nan;94978.97;5075314;28;20229;-70
2022/06/06 05:56:46;;;;;;;9.98;7.88;;;;;;;24.65;nan;94979.81;5075885;28;20208;-70
2022/06/06 05:59:33;;;;;;;10.07;7.55;;;;;;;26.75;nan;94979.88;5075920;28;20209;-71
2022/06/06 06:02:21;;;;;;;9.70;8.07;;;;;;;27.05;nan;94981.25;5076970;28;20202;-70
2022/06/06 06:05:08;;;;;;;13.88;7.68;;;;;;;26.14;nan;94985.03;5076351;28;20213;-71
2022/06/06 06:07:43;;;;;;;10.65;7.05;;;;;;;25.93;nan;94978.31;5077162;28;20205;-71
2022/06/06 06:10:12;;;;;;;13.20;7.15;;;;;;;25.83;nan;94987.13;5077394;28;20284;-74
2022/06/06 06:13:06;;;;;;;8.13;7.32;;;;;;;25.30;nan;94985.97;5077041;28;20233;-71
2022/06/06 06:15:37;;;;;;;11.30;8.25;;;;;;;25.31;nan;94986.78;5076797;28;20209;-71
2022/06/06 06:18:09;;;;;;;9.15;8.13;;;;;;;25.80;nan;94977.81;5076324;28;20206;-70
2022/06/06 06:20:45;;;;;;;12.50;7.25;;;;;;;26.06;nan;94965.72;5076984;28;20205;-71
2022/06/06 06:23:16;;;;;;;16.75;9.20;;;;;;;26.32;nan;94973.66;5076326;28;21094;-70
2022/06/06 06:25:44;;;;;;;16.38;9.18;;;;;;;26.23;nan;94979.72;5076310;28;20229;-73
2022/06/06 06:28:13;;;;;;;9.00;7.78;;;;;;;26.35;nan;94973.38;5076484;28;20206;-71
2022/06/06 06:31:02;;;;;;;15.82;8.60;;;;;;;26.13;nan;94973.78;5076953;28;20209;-71
2022/06/06 06:33:51;;;;;;;15.63;7.57;;;;;;;26.27;nan;94977.66;5076073;28;20233;-71
2022/06/06 06:36:31;;;;;;;11.88;7.03;;;;;;;26.08;nan;94971.63;5075931;28;20210;-71
2022/06/06 06:39:08;;;;;;;7.82;7.05;;;;;;;25.85;nan;94969.56;5071880;28;20214;-71
2022/06/06 06:41:47;;;;;;;10.07;6.78;;;;;;;26.57;nan;94971.25;5073217;28;20194;-71
2022/06/06 06:44:23;;;;;;;9.45;7.75;;;;;;;27.44;nan;94956.38;5074622;28;20647;-73
2022/06/06 06:46:57;;;;;;;15.68;9.38;;;;;;;28.14;nan;94955.28;5075624;28;20208;-72
2022/06/06 06:49:36;;;;;;;12.10;6.13;;;;;;;28.92;nan;94948.66;5075439;28;20293;-72
2022/06/06 06:52:15;;;;;;;10.75;6.43;;;;;;;29.43;nan;94941.34;5075298;28;20289;-72
2022/06/06 06:55:05;;;;;;;10.60;6.32;;;;;;;29.56;nan;94928.53;5075750;28;20880;-73
2022/06/06 06:57:53;;;;;;;10.40;6.00;;;;;;;29.95;nan;94927.66;5076395;28;20204;-73
2022/06/06 07:00:22;;;;;;;10.80;6.60;;;;;;;30.03;nan;94917.16;5075781;28;20202;-73
2022/06/06 07:09:06;;;;;;;10.52;6.00;;;;;;;29.94;nan;94907.72;5076346;28;20212;-74
2022/06/06 07:11:53;;;;;;;15.13;5.95;;;;;;;29.63;nan;94912.94;5076827;28;20638;-77
2022/06/06 07:14:40;;;;;;;20.92;6.10;;;;;;;29.40;nan;94915.50;5073864;28;20225;-74
2022/06/06 07:17:11;;;;;;;13.10;6.03;;;;;;;29.18;nan;94903.13;5075696;28;20201;-74
2022/06/06 07:19:42;;;;;;;14.18;5.88;;;;;;;29.59;nan;94896.75;5076122;28;20256;-75
2022/06/06 07:22:10;;;;;;;15.07;5.10;;;;;;;29.85;nan;94888.59;5073164;28;20202;-74
2022/06/06 07:24:42;;;;;;;18.60;8.75;;;;;;;30.02;nan;94897.19;5072850;28;20201;-74
2022/06/06 07:27:10;;;;;;;12.27;6.00;;;;;;;30.18;nan;94899.72;5072855;28;20204;-77
2022/06/06 07:29:38;;;;;;;12.10;6.45;;;;;;;29.94;nan;94897.22;5073753;28;20213;-76
2022/06/06 07:32:39;;;;;;;12.32;6.82;;;;;;;30.03;nan;94898.81;5073993;28;20667;-75
2022/06/06 07:35:13;;;;;;;12.73;5.32;;;;;;;30.02;nan;94910.28;5070831;28;20308;-74
2022/06/06 07:37:59;;;;;;;9.30;6.45;;;;;;;29.99;nan;94916.69;5074717;28;20209;-75
2022/06/06 07:40:43;;;;;;;16.60;6.18;;;;;;;30.10;nan;94910.25;5074922;28;20202;-75
2022/06/06 07:43:23;;;;;;;14.80;6.22;;;;;;;30.17;nan;94905.94;5073586;28;20639;-74
2022/06/06 07:45:52;;;;;;;14.70;6.53;;;;;;;30.09;nan;94898.94;5073578;28;20201;-74
2022/06/06 07:48:44;;;;;;;12.75;6.68;;;;;;;30.28;nan;94902.06;5073960;28;20312;-74
2022/06/06 07:51:18;;;;;;;12.80;6.05;;;;;;;30.40;nan;94904.13;5074517;28;20210;-75
2022/06/06 07:53:54;;;;;;;24.05;8.80;;;;;;;30.40;nan;94898.88;5073928;28;20805;-73
2022/06/06 07:56:32;;;;;;;15.43;7.53;;;;;;;30.18;nan;94917.25;5074658;28;20208;-74
2022/06/06 07:59:06;;;;;;;21.60;10.65;;;;;;;30.36;nan;94907.25;5073087;28;20193;-75
2022/06/06 08:01:44;;;;;;;14.85;9.63;;;;;;;30.40;nan;94909.38;5072889;28;20338;-73
2022/06/06 08:04:21;;;;;;;10.93;5.70;;;;;;;30.74;nan;94915.97;5073261;28;20202;-74
2022/06/06 08:06:57;;;;;;;10.32;5.85;;;;;;;30.90;nan;94912.38;5075193;28;20198;-74
2022/06/06 08:09:52;;;;;;;12.95;6.28;;;;;;;30.46;nan;94913.88;5075169;28;20274;-73
2022/06/06 08:12:31;;;;;;;21.23;8.27;;;;;;;29.78;nan;94924.31;5072769;28;20208;-74
2022/06/06 08:15:12;;;;;;;17.40;7.65;;;;;;;29.40;nan;94928.59;5077379;28;20229;-72
2022/06/06 08:17:56;;;;;;;71.22;40.05;;;;;;;29.26;nan;94916.97;5079017;28;20582;-74
2022/06/06 08:20:29;;;;;;;122.93;74.47;;;;;;;29.31;nan;94919.91;5078757;28;20311;-76
2022/06/06 08:23:00;;;;;;;13.38;6.85;;;;;;;28.92;nan;94917.25;5078898;28;20209;-72
2022/06/06 08:25:29;;;;;;;9.93;6.28;;;;;;;28.95;nan;94922.16;5078803;28;20225;-74
2022/06/06 08:28:00;;;;;;;17.60;6.97;;;;;;;28.87;nan;94924.78;5078532;28;20278;-72
2022/06/06 08:30:26;;;;;;;7.72;4.13;;;;;;;28.61;nan;94918.91;5079032;28;20201;-74
2022/06/06 08:32:53;;;;;;;12.10;5.10;;;;;;;28.90;nan;94928.88;5077623;28;20663;-74
2022/06/06 08:35:24;;;;;;;11.40;4.97;;;;;;;29.36;nan;94927.28;5078480;28;20193;-72
2022/06/06 08:38:13;;;;;;;9.93;5.50;;;;;;;29.67;nan;94932.56;5077908;28;21387;-72
2022/06/06 08:40:57;;;;;;;7.35;4.15;;;;;;;29.41;nan;94919.75;5078334;28;20244;-73
2022/06/06 08:43:54;;;;;;;11.13;3.88;;;;;;;29.44;nan;94916.81;5077661;28;20667;-73
2022/06/06 08:46:22;;;;;;;8.55;4.53;;;;;;;29.23;nan;94924.34;5077722;28;20193;-71
2022/06/06 08:49:10;;;;;;;12.60;4.55;;;;;;;28.70;nan;94937.03;5077776;28;20844;-72
2022/06/06 08:51:50;;;;;;;17.50;6.43;;;;;;;28.14;nan;94932.59;5078282;28;20723;-72
2022/06/06 08:54:58;;;;;;;15.52;5.50;;;;;;;27.78;nan;94942.47;5077361;28;20240;-70
2022/06/06 08:57:42;;;;;;;5.45;4.13;;;;;;;26.64;nan;94961.88;5078366;28;20198;-74
2022/06/06 09:00:35;;;;;;;8.93;5.05;;;;;;;24.91;nan;94943.66;5078330;28;20699;-73
2022/06/06 09:03:46;;;;;;;6.88;3.55;;;;;;;24.14;nan;94948.09;5078037;28;20208;-72
2022/06/06 09:06:51;;;;;;;6.38;2.50;;;;;;;23.94;nan;94968.03;5075879;28;20308;-72
2022/06/06 09:10:17;;;;;;;11.40;3.78;;;;;;;23.63;nan;94975.88;5049556;28;20201;-72
2022/06/06 09:13:18;;;;;;;17.52;4.18;;;;;;;23.18;nan;94959.88;4933929;29;20202;-72
2022/06/06 09:16:20;;;;;;;4.22;3.58;;;;;;;22.56;nan;94967.66;5076186;28;20206;-73
2022/06/06 09:19:10;;;;;;;7.50;4.43;;;;;;;22.29;nan;94997.44;5046830;28;20648;-72
2022/06/06 09:22:09;;;;;;;9.50;5.65;;;;;;;22.07;nan;95002.69;5077918;28;21444;-73
2022/06/06 09:25:16;;;;;;;12.48;6.47;;;;;;;21.82;nan;95008.13;5077063;28;20209;-73
2022/06/06 09:28:27;;;;;;;5.35;4.40;;;;;;;21.77;nan;94999.94;5076947;28;20212;-73
2022/06/06 09:31:14;;;;;;;7.38;4.43;;;;;;;21.20;nan;94991.41;5077910;28;20205;-74
2022/06/06 09:34:04;;;;;;;18.13;4.60;;;;;;;21.78;nan;94980.88;5077277;28;20220;-71
2022/06/06 09:36:47;;;;;;;7.55;4.13;;;;;;;21.71;nan;94989.13;5074882;28;20277;-72
2022/06/06 09:39:35;;;;;;;8.40;4.10;;;;;;;22.34;nan;95003.06;5076922;28;20241;-73
2022/06/06 09:42:15;;;;;;;5.18;3.58;;;;;;;22.44;nan;95004.94;5077097;28;20707;-72
2022/06/06 09:45:29;;;;;;;4.88;3.80;;;;;;;22.37;nan;95010.59;5077732;28;20201;-74
2022/06/06 09:48:29;;;;;;;7.88;4.47;;;;;;;22.49;nan;95010.56;5071668;28;20205;-74
2022/06/06 09:51:44;;;;;;;7.43;4.60;;;;;;;22.59;nan;94993.31;5077482;28;20229;-70
2022/06/06 10:01:05;;;;;;;7.07;4.00;;;;;;;23.53;nan;94985.38;5077384;28;20247;-72
2022/06/06 10:04:15;;;;;;;8.32;4.20;;;;;;;23.36;nan;94992.00;5076705;28;20201;-73
2022/06/06 10:07:12;;;;;;;5.72;4.78;;;;;;;23.36;nan;94994.59;5077418;28;20193;-72
2022/06/06 10:10:10;;;;;;;7.30;4.80;;;;;;;23.21;nan;95005.44;5077839;28;20201;-73
2022/06/06 10:12:56;;;;;;;9.15;5.03;;;;;;;23.28;nan;95001.38;5076799;28;20213;-72
2022/06/06 10:16:00;;;;;;;6.82;4.50;;;;;;;22.89;nan;95008.13;5076906;28;20206;-72
2022/06/06 10:18:58;;;;;;;9.10;3.42;;;;;;;22.44;nan;95010.09;5032081;28;20204;-73
2022/06/06 10:21:41;;;;;;;5.43;3.67;;;;;;;22.43;nan;95039.53;5077368;28;20210;-72
2022/06/06 10:24:25;;;;;;;11.50;4.68;;;;;;;22.28;nan;95044.97;5076256;28;20687;-72
2022/06/06 10:27:13;;;;;;;10.70;4.57;;;;;;;22.13;nan;95030.69;5077166;28;20208;-73
2022/06/06 10:30:12;;;;;;;15.05;7.22;;;;;;;21.96;nan;95021.66;5076813;28;20213;-73
2022/06/06 10:33:05;;;;;;;10.68;5.10;;;;;;;22.01;nan;95021.31;5076588;28;20197;-73
2022/06/06 10:35:44;;;;;;;9.70;6.05;;;;;;;21.97;nan;95022.47;5076047;28;20205;-73
2022/06/06 10:38:29;;;;;;;9.43;5.13;;;;;;;21.85;nan;95026.00;5074812;28;20296;-73
2022/06/06 10:41:09;;;;;;;5.22;4.45;;;;;;;22.17;nan;95028.69;5076191;28;20193;-75
2022/06/06 10:43:48;;;;;;;11.75;6.07;;;;;;;22.23;nan;95025.59;5076247;28;20205;-76
2022/06/06 10:46:24;;;;;;;10.40;5.13;;;;;;;21.95;nan;95011.41;5075485;28;20212;-75
2022/06/06 10:49:15;;;;;;;12.30;6.28;;;;;;;21.85;nan;94975.09;5075641;28;21572;-73
2022/06/06 10:52:14;;;;;;;12.60;5.10;;;;;;;21.80;nan;94989.31;5076292;28;20669;-73
2022/06/06 10:55:19;;;;;;;14.82;8.02;;;;;;;21.92;nan;95014.25;5075807;28;20234;-73
2022/06/06 10:58:31;;;;;;;8.88;6.85;;;;;;;22.08;nan;95022.44;5072077;28;20205;-73
2022/06/06 11:01:26;;;;;;;8.55;5.68;;;;;;;22.14;nan;95019.38;5074239;28;20209;-76
2022/06/06 11:04:25;;;;;;;7.55;5.88;;;;;;;22.12;nan;95005.75;5073868;28;20198;-75
2022/06/06 11:07:11;;;;;;;8.77;5.10;;;;;;;22.02;nan;94999.69;5073611;28;21792;-76
2022/06/06 11:10:18;;;;;;;6.07;4.45;;;;;;;22.10;nan;94988.69;5074308;28;21647;-73
2022/06/06 11:13:15;;;;;;;7.63;5.50;;;;;;;22.21;nan;94984.31;5065820;28;20198;-73
2022/06/06 11:15:50;;;;;;;7.70;5.10;;;;;;;22.31;nan;95000.72;5075568;28;20676;-73
2022/06/06 11:18:50;;;;;;;5.55;4.20;;;;;;;22.18;nan;94992.31;5073668;28;20201;-74
2022/06/06 11:21:40;;;;;;;8.25;5.75;;;;;;;22.24;nan;95015.13;5072669;28;20629;-74
2022/06/06 11:24:19;;;;;;;6.72;4.57;;;;;;;22.08;nan;95014.69;5075260;28;20198;-74
2022/06/06 11:27:18;;;;;;;11.52;5.32;;;;;;;21.99;nan;95011.06;5075442;28;20212;-73
2022/06/06 11:30:26;;;;;;;5.15;4.43;;;;;;;22.14;nan;95009.03;5074845;28;20205;-73
2022/06/06 11:33:38;;;;;;;5.55;4.47;;;;;;;22.06;nan;95003.63;5071055;28;20814;-73
2022/06/06 11:36:38;;;;;;;4.97;4.45;;;;;;;22.11;nan;94996.34;5074649;28;20201;-72
2022/06/06 11:39:46;;;;;;;9.88;4.15;;;;;;;22.32;nan;95012.72;5074854;28;20221;-72
2022/06/06 11:42:43;;;;;;;7.60;4.60;;;;;;;22.44;nan;94990.22;5030465;28;20275;-72
2022/06/06 11:45:29;;;;;;;7.88;5.70;;;;;;;22.10;nan;94976.56;5075362;28;20208;-72
2022/06/06 11:48:13;;;;;;;5.50;5.18;;;;;;;22.00;nan;94976.50;5074989;28;20225;-71
2022/06/06 11:51:16;;;;;;;5.50;5.00;;;;;;;22.10;nan;94976.56;5074955;28;20208;-72
2022/06/06 11:54:22;;;;;;;5.32;4.93;;;;;;;22.35;nan;94990.94;5074929;28;20286;-73
2022/06/06 11:57:26;;;;;;;5.30;4.90;;;;;;;22.50;nan;94999.25;5074354;28;20201;-73
2022/06/06 12:00:08;;;;;;;8.85;5.53;;;;;;;22.64;nan;95001.53;5075305;28;20209;-73
2022/06/06 12:03:02;;;;;;;5.13;4.28;;;;;;;22.56;nan;95009.91;5074810;28;20758;-74
2022/06/06 12:05:52;;;;;;;4.65;4.35;;;;;;;22.53;nan;95004.16;5075441;28;20194;-73
2022/06/06 12:09:00;;;;;;;4.35;3.95;;;;;;;22.50;nan;94997.50;5074546;28;20202;-72
2022/06/06 12:12:03;;;;;;;4.50;4.20;;;;;;;22.06;nan;94982.94;5072455;28;20198;-73
2022/06/06 12:15:11;;;;;;;5.25;4.78;;;;;;;21.99;nan;94971.41;5071778;28;20649;-73
2022/06/06 12:17:47;;;;;;;5.97;4.70;;;;;;;21.90;nan;94965.19;4992023;28;20200;-74
2022/06/06 12:20:55;;;;;;;4.95;4.55;;;;;;;22.00;nan;94960.13;5066096;28;20562;-72
2022/06/06 12:23:31;;;;;;;6.57;6.07;;;;;;;21.83;nan;94950.28;5074399;28;20213;-72
2022/06/06 12:26:22;;;;;;;5.57;4.97;;;;;;;21.80;nan;94950.53;5074270;28;20723;-73
2022/06/06 12:29:26;;;;;;;7.90;5.90;;;;;;;21.94;nan;94968.38;5069840;28;20286;-71
2022/06/06 12:32:21;;;;;;;5.90;5.30;;;;;;;22.14;nan;94971.97;5074534;28;20766;-72
2022/06/06 12:34:54;;;;;;;7.10;6.47;;;;;;;22.21;nan;94979.13;5074669;28;20233;-71
2022/06/06 12:37:26;;;;;;;5.43;4.93;;;;;;;22.05;nan;94982.09;5074066;28;20233;-71
2022/06/06 12:40:08;;;;;;;4.97;4.57;;;;;;;22.24;nan;94999.59;5088938;28;20198;-72
2022/06/06 12:42:48;;;;;;;5.75;5.35;;;;;;;22.19;nan;94993.97;5089211;28;20573;-72
2022/06/06 12:45:50;;;;;;;5.38;4.97;;;;;;;22.40;nan;95002.59;5089914;28;20205;-72
2022/06/06 12:48:50;;;;;;;5.38;4.88;;;;;;;22.44;nan;94981.63;5084224;28;20196;-72
2022/06/06 12:51:23;;;;;;;5.40;4.93;;;;;;;22.46;nan;94982.31;5088936;28;20646;-71
2022/06/06 12:54:22;;;;;;;5.70;5.22;;;;;;;22.53;nan;94967.91;5089361;28;20287;-72
2022/06/06 12:56:55;;;;;;;5.47;4.97;;;;;;;22.65;nan;94959.97;5055277;28;20283;-71
2022/06/06 12:59:38;;;;;;;6.65;4.88;;;;;;;22.50;nan;94942.28;5088991;28;20322;-71
2022/06/06 13:02:19;;;;;;;10.90;5.07;;;;;;;22.42;nan;94947.25;5093091;28;20284;-72
2022/06/06 13:05:04;;;;;;;10.23;6.63;;;;;;;22.57;nan;94943.41;5093309;28;20193;-72
2022/06/06 13:07:53;;;;;;;5.70;5.15;;;;;;;22.66;nan;94947.81;5093035;28;20614;-71
2022/06/06 13:10:33;;;;;;;5.97;4.93;;;;;;;22.87;nan;94940.06;5093287;28;20281;-71
2022/06/06 13:13:17;;;;;;;8.88;5.05;;;;;;;22.69;nan;94937.22;5093126;28;20194;-72
2022/06/06 13:15:55;;;;;;;6.20;4.85;;;;;;;22.52;nan;94935.22;5092825;28;20233;-72
2022/06/06 13:18:43;;;;;;;10.27;5.20;;;;;;;22.35;nan;94931.41;5092505;28;20198;-71
2022/06/06 13:21:21;;;;;;;8.25;5.18;;;;;;;22.31;nan;94928.22;5092804;28;20197;-71
2022/06/06 13:24:06;;;;;;;5.72;5.32;;;;;;;22.38;nan;94933.75;5092765;28;20559;-71
2022/06/06 13:26:47;;;;;;;4.70;4.43;;;;;;;22.61;nan;94930.06;5092551;28;20248;-70
2022/06/06 13:29:27;;;;;;;10.48;5.00;;;;;;;22.70;nan;94946.63;5092617;28;20631;-71